sensor_id;sensor_type;location;lat;lon;timestamp;P1;durP1;ratioP1;P2;durP2;ratioP2
75295;SDS011;64623;44.738;37.804;2024-03-07T00:00:50;9.48;;;6.60;;
75295;SDS011;64623;44.738;37.804;2024-03-07T00:01:56;10.65;;;6.55;;
75295;SDS011;64623;44.738;37.804;2024-03-07T00:02:59;10.55;;;7.43;;
75295;SDS011;64623;44.738;37.804;2024-03-07T00:04:03;10.88;;;7.07;;
75295;SDS011;64623;44.738;37.804;2024-03-07T00:05:06;11.82;;;7.53;;
75295;SDS011;64623;44.738;37.804;2024-03-07T00:06:10;10.70;;;6.90;;
75295;SDS011;64623;44.738;37.804;2024-03-07T00:07:13;10.15;;;7.20;;
75295;SDS011;64623;44.738;37.804;2024-03-07T00:08:16;12.20;;;7.38;;
75295;SDS011;64623;44.738;37.804;2024-03-07T00:09:19;14.70;;;8.32;;
75295;SDS011;64623;44.738;37.804;2024-03-07T00:10:26;11.75;;;8.02;;
75295;SDS011;64623;44.738;37.804;2024-03-07T00:11:29;10.93;;;7.18;;
75295;SDS011;64623;44.738;37.804;2024-03-07T00:12:36;11.13;;;7.80;;
75295;SDS011;64623;44.738;37.804;2024-03-07T00:13:41;14.57;;;9.23;;
75295;SDS011;64623;44.738;37.804;2024-03-07T00:14:45;13.70;;;8.93;;
75295;SDS011;64623;44.738;37.804;2024-03-07T00:15:48;14.13;;;8.55;;
75295;SDS011;64623;44.738;37.804;2024-03-07T00:16:51;15.43;;;9.68;;
75295;SDS011;64623;44.738;37.804;2024-03-07T00:17:53;16.88;;;9.77;;
75295;SDS011;64623;44.738;37.804;2024-03-07T00:18:56;13.93;;;9.32;;
75295;SDS011;64623;44.738;37.804;2024-03-07T00:20:00;17.25;;;10.50;;
75295;SDS011;64623;44.738;37.804;2024-03-07T00:21:04;16.70;;;9.82;;
75295;SDS011;64623;44.738;37.804;2024-03-07T00:22:07;14.73;;;8.60;;
75295;SDS011;64623;44.738;37.804;2024-03-07T00:23:11;14.13;;;8.52;;
75295;SDS011;64623;44.738;37.804;2024-03-07T00:24:14;16.27;;;10.85;;
75295;SDS011;64623;44.738;37.804;2024-03-07T00:25:17;18.83;;;10.15;;
75295;SDS011;64623;44.738;37.804;2024-03-07T00:26:22;16.38;;;11.05;;
75295;SDS011;64623;44.738;37.804;2024-03-07T00:27:25;15.20;;;10.25;;
75295;SDS011;64623;44.738;37.804;2024-03-07T00:28:28;17.25;;;10.77;;
75295;SDS011;64623;44.738;37.804;2024-03-07T00:29:34;17.08;;;10.57;;
75295;SDS011;64623;44.738;37.804;2024-03-07T00:30:40;19.98;;;13.05;;
75295;SDS011;64623;44.738;37.804;2024-03-07T00:31:43;20.23;;;12.15;;
75295;SDS011;64623;44.738;37.804;2024-03-07T00:32:46;22.30;;;12.23;;
75295;SDS011;64623;44.738;37.804;2024-03-07T00:33:50;19.00;;;11.70;;
75295;SDS011;64623;44.738;37.804;2024-03-07T00:34:54;20.85;;;11.82;;
75295;SDS011;64623;44.738;37.804;2024-03-07T00:35:57;23.75;;;11.73;;
75295;SDS011;64623;44.738;37.804;2024-03-07T00:36:59;21.08;;;12.45;;
75295;SDS011;64623;44.738;37.804;2024-03-07T00:38:03;21.05;;;11.93;;
75295;SDS011;64623;44.738;37.804;2024-03-07T00:39:06;21.20;;;11.63;;
75295;SDS011;64623;44.738;37.804;2024-03-07T00:40:14;19.00;;;10.75;;
75295;SDS011;64623;44.738;37.804;2024-03-07T00:41:17;19.55;;;10.65;;
75295;SDS011;64623;44.738;37.804;2024-03-07T00:42:20;19.20;;;10.95;;
75295;SDS011;64623;44.738;37.804;2024-03-07T00:43:24;21.50;;;12.27;;
75295;SDS011;64623;44.738;37.804;2024-03-07T00:44:27;19.48;;;11.55;;
75295;SDS011;64623;44.738;37.804;2024-03-07T00:45:30;18.08;;;11.23;;
75295;SDS011;64623;44.738;37.804;2024-03-07T00:46:37;16.45;;;10.32;;
75295;SDS011;64623;44.738;37.804;2024-03-07T00:47:40;17.67;;;11.05;;
75295;SDS011;64623;44.738;37.804;2024-03-07T00:48:44;18.23;;;10.38;;
75295;SDS011;64623;44.738;37.804;2024-03-07T00:49:48;16.95;;;10.70;;
75295;SDS011;64623;44.738;37.804;2024-03-07T00:50:51;18.67;;;11.32;;
75295;SDS011;64623;44.738;37.804;2024-03-07T00:51:54;18.10;;;11.70;;
75295;SDS011;64623;44.738;37.804;2024-03-07T00:52:58;16.27;;;10.13;;
75295;SDS011;64623;44.738;37.804;2024-03-07T00:54:01;19.25;;;11.55;;
75295;SDS011;64623;44.738;37.804;2024-03-07T00:55:05;17.40;;;10.93;;
75295;SDS011;64623;44.738;37.804;2024-03-07T00:56:11;16.77;;;11.00;;
75295;SDS011;64623;44.738;37.804;2024-03-07T00:57:14;17.60;;;10.90;;
75295;SDS011;64623;44.738;37.804;2024-03-07T00:58:17;15.98;;;9.93;;
75295;SDS011;64623;44.738;37.804;2024-03-07T00:59:20;16.98;;;10.38;;
75295;SDS011;64623;44.738;37.804;2024-03-07T01:00:23;16.50;;;9.63;;
75295;SDS011;64623;44.738;37.804;2024-03-07T01:01:26;16.13;;;10.45;;
75295;SDS011;64623;44.738;37.804;2024-03-07T01:02:29;16.23;;;10.38;;
75295;SDS011;64623;44.738;37.804;2024-03-07T01:03:32;18.85;;;10.05;;
75295;SDS011;64623;44.738;37.804;2024-03-07T01:04:35;16.77;;;10.32;;
75295;SDS011;64623;44.738;37.804;2024-03-07T01:05:38;16.00;;;10.45;;
75295;SDS011;64623;44.738;37.804;2024-03-07T01:06:41;13.77;;;9.73;;
75295;SDS011;64623;44.738;37.804;2024-03-07T01:07:45;15.02;;;9.18;;
75295;SDS011;64623;44.738;37.804;2024-03-07T01:08:50;15.45;;;9.60;;
75295;SDS011;64623;44.738;37.804;2024-03-07T01:09:54;15.18;;;9.48;;
75295;SDS011;64623;44.738;37.804;2024-03-07T01:10:57;14.77;;;9.93;;
75295;SDS011;64623;44.738;37.804;2024-03-07T01:12:00;15.90;;;9.07;;
75295;SDS011;64623;44.738;37.804;2024-03-07T01:13:06;14.23;;;8.70;;
75295;SDS011;64623;44.738;37.804;2024-03-07T01:14:11;15.70;;;9.68;;
75295;SDS011;64623;44.738;37.804;2024-03-07T01:15:14;14.77;;;9.40;;
75295;SDS011;64623;44.738;37.804;2024-03-07T01:16:17;15.23;;;9.43;;
75295;SDS011;64623;44.738;37.804;2024-03-07T01:17:20;13.88;;;8.63;;
75295;SDS011;64623;44.738;37.804;2024-03-07T01:18:23;15.88;;;10.02;;
75295;SDS011;64623;44.738;37.804;2024-03-07T01:19:26;15.35;;;9.27;;
75295;SDS011;64623;44.738;37.804;2024-03-07T01:20:29;15.30;;;9.98;;
75295;SDS011;64623;44.738;37.804;2024-03-07T01:21:35;15.25;;;9.25;;
75295;SDS011;64623;44.738;37.804;2024-03-07T01:22:39;15.40;;;10.32;;
75295;SDS011;64623;44.738;37.804;2024-03-07T01:23:42;14.85;;;9.50;;
75295;SDS011;64623;44.738;37.804;2024-03-07T01:24:45;14.68;;;9.73;;
75295;SDS011;64623;44.738;37.804;2024-03-07T01:25:48;15.45;;;9.45;;
75295;SDS011;64623;44.738;37.804;2024-03-07T01:26:51;15.07;;;9.13;;
75295;SDS011;64623;44.738;37.804;2024-03-07T01:27:55;14.68;;;9.50;;
75295;SDS011;64623;44.738;37.804;2024-03-07T01:28:58;14.35;;;9.68;;
75295;SDS011;64623;44.738;37.804;2024-03-07T01:30:01;16.10;;;10.73;;
75295;SDS011;64623;44.738;37.804;2024-03-07T01:31:04;21.55;;;9.75;;
75295;SDS011;64623;44.738;37.804;2024-03-07T01:32:07;17.40;;;11.10;;
75295;SDS011;64623;44.738;37.804;2024-03-07T01:33:10;18.10;;;10.57;;
75295;SDS011;64623;44.738;37.804;2024-03-07T01:34:13;16.48;;;10.55;;
75295;SDS011;64623;44.738;37.804;2024-03-07T01:35:16;19.27;;;11.25;;
75295;SDS011;64623;44.738;37.804;2024-03-07T01:36:19;16.38;;;10.98;;
75295;SDS011;64623;44.738;37.804;2024-03-07T01:37:23;21.38;;;12.55;;
75295;SDS011;64623;44.738;37.804;2024-03-07T01:38:26;18.58;;;11.93;;
75295;SDS011;64623;44.738;37.804;2024-03-07T01:39:29;21.38;;;11.55;;
75295;SDS011;64623;44.738;37.804;2024-03-07T01:40:32;18.73;;;11.02;;
75295;SDS011;64623;44.738;37.804;2024-03-07T01:41:35;19.77;;;11.90;;
75295;SDS011;64623;44.738;37.804;2024-03-07T01:42:38;21.63;;;12.02;;
75295;SDS011;64623;44.738;37.804;2024-03-07T01:43:42;19.30;;;11.82;;
75295;SDS011;64623;44.738;37.804;2024-03-07T01:44:47;21.02;;;12.45;;
75295;SDS011;64623;44.738;37.804;2024-03-07T01:45:50;22.48;;;12.15;;
75295;SDS011;64623;44.738;37.804;2024-03-07T01:46:58;21.85;;;13.02;;
75295;SDS011;64623;44.738;37.804;2024-03-07T01:48:06;21.85;;;13.45;;
75295;SDS011;64623;44.738;37.804;2024-03-07T01:49:13;19.65;;;12.00;;
75295;SDS011;64623;44.738;37.804;2024-03-07T01:50:16;20.55;;;12.38;;
75295;SDS011;64623;44.738;37.804;2024-03-07T01:51:20;23.55;;;13.25;;
75295;SDS011;64623;44.738;37.804;2024-03-07T01:52:24;19.42;;;11.85;;
75295;SDS011;64623;44.738;37.804;2024-03-07T01:53:27;21.35;;;11.38;;
75295;SDS011;64623;44.738;37.804;2024-03-07T01:54:31;21.92;;;12.13;;
75295;SDS011;64623;44.738;37.804;2024-03-07T01:55:34;21.70;;;12.23;;
75295;SDS011;64623;44.738;37.804;2024-03-07T01:56:38;21.20;;;12.38;;
75295;SDS011;64623;44.738;37.804;2024-03-07T01:57:42;22.98;;;13.15;;
75295;SDS011;64623;44.738;37.804;2024-03-07T01:58:47;19.20;;;11.43;;
75295;SDS011;64623;44.738;37.804;2024-03-07T01:59:54;21.42;;;11.85;;
75295;SDS011;64623;44.738;37.804;2024-03-07T02:00:58;20.63;;;12.48;;
75295;SDS011;64623;44.738;37.804;2024-03-07T02:02:02;18.95;;;11.38;;
75295;SDS011;64623;44.738;37.804;2024-03-07T02:03:05;19.58;;;11.30;;
75295;SDS011;64623;44.738;37.804;2024-03-07T02:04:09;22.33;;;13.73;;
75295;SDS011;64623;44.738;37.804;2024-03-07T02:05:12;20.80;;;12.20;;
75295;SDS011;64623;44.738;37.804;2024-03-07T02:06:16;21.35;;;11.85;;
75295;SDS011;64623;44.738;37.804;2024-03-07T02:07:18;19.90;;;11.25;;
75295;SDS011;64623;44.738;37.804;2024-03-07T02:08:21;19.55;;;12.20;;
75295;SDS011;64623;44.738;37.804;2024-03-07T02:09:24;21.38;;;12.00;;
75295;SDS011;64623;44.738;37.804;2024-03-07T02:10:28;19.73;;;12.00;;
75295;SDS011;64623;44.738;37.804;2024-03-07T02:11:31;19.50;;;12.10;;
75295;SDS011;64623;44.738;37.804;2024-03-07T02:12:34;24.02;;;13.30;;
75295;SDS011;64623;44.738;37.804;2024-03-07T02:13:37;22.02;;;12.65;;
75295;SDS011;64623;44.738;37.804;2024-03-07T02:14:40;22.63;;;13.32;;
75295;SDS011;64623;44.738;37.804;2024-03-07T02:15:43;22.08;;;13.65;;
75295;SDS011;64623;44.738;37.804;2024-03-07T02:16:46;22.73;;;13.32;;
75295;SDS011;64623;44.738;37.804;2024-03-07T02:18:09;20.92;;;12.38;;
75295;SDS011;64623;44.738;37.804;2024-03-07T02:19:13;25.13;;;14.40;;
75295;SDS011;64623;44.738;37.804;2024-03-07T02:20:17;26.48;;;14.35;;
75295;SDS011;64623;44.738;37.804;2024-03-07T02:21:21;23.27;;;13.77;;
75295;SDS011;64623;44.738;37.804;2024-03-07T02:22:25;25.17;;;14.43;;
75295;SDS011;64623;44.738;37.804;2024-03-07T02:23:28;23.00;;;12.70;;
75295;SDS011;64623;44.738;37.804;2024-03-07T02:24:31;26.45;;;15.25;;
75295;SDS011;64623;44.738;37.804;2024-03-07T02:25:34;23.70;;;13.52;;
75295;SDS011;64623;44.738;37.804;2024-03-07T02:26:40;29.25;;;15.30;;
75295;SDS011;64623;44.738;37.804;2024-03-07T02:27:42;25.40;;;14.80;;
75295;SDS011;64623;44.738;37.804;2024-03-07T02:28:47;25.92;;;14.57;;
75295;SDS011;64623;44.738;37.804;2024-03-07T02:29:51;26.27;;;14.90;;
75295;SDS011;64623;44.738;37.804;2024-03-07T02:30:54;23.95;;;13.75;;
75295;SDS011;64623;44.738;37.804;2024-03-07T02:31:57;24.83;;;14.68;;
75295;SDS011;64623;44.738;37.804;2024-03-07T02:33:00;24.73;;;14.85;;
75295;SDS011;64623;44.738;37.804;2024-03-07T02:34:09;25.75;;;13.93;;
75295;SDS011;64623;44.738;37.804;2024-03-07T02:35:12;22.92;;;13.45;;
75295;SDS011;64623;44.738;37.804;2024-03-07T02:36:18;27.80;;;14.70;;
75295;SDS011;64623;44.738;37.804;2024-03-07T02:37:21;23.67;;;14.38;;
75295;SDS011;64623;44.738;37.804;2024-03-07T02:38:23;27.48;;;14.88;;
75295;SDS011;64623;44.738;37.804;2024-03-07T02:39:26;25.13;;;14.05;;
75295;SDS011;64623;44.738;37.804;2024-03-07T02:40:29;25.33;;;14.57;;
75295;SDS011;64623;44.738;37.804;2024-03-07T02:41:33;25.13;;;14.23;;
75295;SDS011;64623;44.738;37.804;2024-03-07T02:42:36;21.88;;;13.05;;
75295;SDS011;64623;44.738;37.804;2024-03-07T02:43:39;22.85;;;14.60;;
75295;SDS011;64623;44.738;37.804;2024-03-07T02:44:42;23.02;;;14.30;;
75295;SDS011;64623;44.738;37.804;2024-03-07T02:45:45;23.17;;;13.45;;
75295;SDS011;64623;44.738;37.804;2024-03-07T02:46:48;23.00;;;13.32;;
75295;SDS011;64623;44.738;37.804;2024-03-07T02:47:51;23.30;;;14.48;;
75295;SDS011;64623;44.738;37.804;2024-03-07T02:48:56;25.42;;;15.10;;
75295;SDS011;64623;44.738;37.804;2024-03-07T02:49:59;25.48;;;14.75;;
75295;SDS011;64623;44.738;37.804;2024-03-07T02:51:03;28.35;;;14.65;;
75295;SDS011;64623;44.738;37.804;2024-03-07T02:52:08;27.67;;;14.77;;
75295;SDS011;64623;44.738;37.804;2024-03-07T02:53:11;23.52;;;14.48;;
75295;SDS011;64623;44.738;37.804;2024-03-07T02:54:14;25.88;;;14.10;;
75295;SDS011;64623;44.738;37.804;2024-03-07T02:55:17;24.63;;;15.70;;
75295;SDS011;64623;44.738;37.804;2024-03-07T02:56:21;26.58;;;15.00;;
75295;SDS011;64623;44.738;37.804;2024-03-07T02:57:24;26.65;;;14.82;;
75295;SDS011;64623;44.738;37.804;2024-03-07T02:58:27;29.80;;;15.43;;
75295;SDS011;64623;44.738;37.804;2024-03-07T02:59:30;25.63;;;14.80;;
75295;SDS011;64623;44.738;37.804;2024-03-07T03:00:33;25.10;;;14.25;;
75295;SDS011;64623;44.738;37.804;2024-03-07T03:01:37;24.27;;;14.02;;
75295;SDS011;64623;44.738;37.804;2024-03-07T03:02:40;22.55;;;13.55;;
75295;SDS011;64623;44.738;37.804;2024-03-07T03:03:43;24.65;;;14.40;;
75295;SDS011;64623;44.738;37.804;2024-03-07T03:04:47;26.05;;;14.90;;
75295;SDS011;64623;44.738;37.804;2024-03-07T03:05:50;27.05;;;15.52;;
75295;SDS011;64623;44.738;37.804;2024-03-07T03:06:53;26.38;;;15.25;;
75295;SDS011;64623;44.738;37.804;2024-03-07T03:07:56;27.02;;;15.00;;
75295;SDS011;64623;44.738;37.804;2024-03-07T03:08:58;28.23;;;15.07;;
75295;SDS011;64623;44.738;37.804;2024-03-07T03:10:02;22.50;;;12.63;;
75295;SDS011;64623;44.738;37.804;2024-03-07T03:11:09;24.80;;;15.00;;
75295;SDS011;64623;44.738;37.804;2024-03-07T03:12:16;25.00;;;13.68;;
75295;SDS011;64623;44.738;37.804;2024-03-07T03:13:19;24.98;;;13.77;;
75295;SDS011;64623;44.738;37.804;2024-03-07T03:14:22;26.35;;;15.88;;
75295;SDS011;64623;44.738;37.804;2024-03-07T03:15:26;27.23;;;14.57;;
75295;SDS011;64623;44.738;37.804;2024-03-07T03:16:29;24.42;;;14.15;;
75295;SDS011;64623;44.738;37.804;2024-03-07T03:17:35;24.55;;;13.30;;
75295;SDS011;64623;44.738;37.804;2024-03-07T03:18:38;23.15;;;14.43;;
75295;SDS011;64623;44.738;37.804;2024-03-07T03:19:41;22.15;;;14.32;;
75295;SDS011;64623;44.738;37.804;2024-03-07T03:20:44;24.33;;;13.00;;
75295;SDS011;64623;44.738;37.804;2024-03-07T03:21:50;25.77;;;13.98;;
75295;SDS011;64623;44.738;37.804;2024-03-07T03:22:53;20.38;;;12.77;;
75295;SDS011;64623;44.738;37.804;2024-03-07T03:24:04;22.73;;;13.30;;
75295;SDS011;64623;44.738;37.804;2024-03-07T03:25:07;24.35;;;13.85;;
75295;SDS011;64623;44.738;37.804;2024-03-07T03:26:11;25.45;;;13.80;;
75295;SDS011;64623;44.738;37.804;2024-03-07T03:27:14;20.88;;;12.88;;
75295;SDS011;64623;44.738;37.804;2024-03-07T03:28:17;19.52;;;12.45;;
75295;SDS011;64623;44.738;37.804;2024-03-07T03:29:21;19.90;;;12.27;;
75295;SDS011;64623;44.738;37.804;2024-03-07T03:30:24;22.02;;;13.77;;
75295;SDS011;64623;44.738;37.804;2024-03-07T03:31:28;22.23;;;13.85;;
75295;SDS011;64623;44.738;37.804;2024-03-07T03:32:31;19.35;;;12.20;;
75295;SDS011;64623;44.738;37.804;2024-03-07T03:33:34;20.10;;;12.32;;
75295;SDS011;64623;44.738;37.804;2024-03-07T03:34:37;19.33;;;12.20;;
75295;SDS011;64623;44.738;37.804;2024-03-07T03:35:40;19.42;;;12.05;;
75295;SDS011;64623;44.738;37.804;2024-03-07T03:36:43;21.27;;;12.27;;
75295;SDS011;64623;44.738;37.804;2024-03-07T03:37:46;18.20;;;11.57;;
75295;SDS011;64623;44.738;37.804;2024-03-07T03:38:50;19.73;;;12.50;;
75295;SDS011;64623;44.738;37.804;2024-03-07T03:39:53;20.08;;;11.77;;
75295;SDS011;64623;44.738;37.804;2024-03-07T03:40:56;15.95;;;9.77;;
75295;SDS011;64623;44.738;37.804;2024-03-07T03:41:59;17.85;;;11.55;;
75295;SDS011;64623;44.738;37.804;2024-03-07T03:43:02;18.75;;;10.63;;
75295;SDS011;64623;44.738;37.804;2024-03-07T03:44:05;15.38;;;10.18;;
75295;SDS011;64623;44.738;37.804;2024-03-07T03:45:09;15.95;;;10.20;;
75295;SDS011;64623;44.738;37.804;2024-03-07T03:47:19;16.95;;;10.40;;
75295;SDS011;64623;44.738;37.804;2024-03-07T03:48:22;16.92;;;9.48;;
75295;SDS011;64623;44.738;37.804;2024-03-07T03:49:25;17.55;;;10.68;;
75295;SDS011;64623;44.738;37.804;2024-03-07T03:50:28;17.15;;;10.18;;
75295;SDS011;64623;44.738;37.804;2024-03-07T03:51:31;16.10;;;9.90;;
75295;SDS011;64623;44.738;37.804;2024-03-07T03:52:34;15.63;;;8.18;;
75295;SDS011;64623;44.738;37.804;2024-03-07T03:53:38;19.58;;;9.65;;
75295;SDS011;64623;44.738;37.804;2024-03-07T03:54:41;16.08;;;9.55;;
75295;SDS011;64623;44.738;37.804;2024-03-07T03:55:44;12.77;;;8.25;;
75295;SDS011;64623;44.738;37.804;2024-03-07T03:56:47;13.05;;;7.95;;
75295;SDS011;64623;44.738;37.804;2024-03-07T03:57:50;13.32;;;8.13;;
75295;SDS011;64623;44.738;37.804;2024-03-07T03:58:53;13.20;;;7.97;;
75295;SDS011;64623;44.738;37.804;2024-03-07T03:59:56;15.23;;;8.00;;
75295;SDS011;64623;44.738;37.804;2024-03-07T04:00:59;13.85;;;6.80;;
75295;SDS011;64623;44.738;37.804;2024-03-07T04:02:02;12.98;;;7.97;;
75295;SDS011;64623;44.738;37.804;2024-03-07T04:03:05;12.18;;;7.55;;
75295;SDS011;64623;44.738;37.804;2024-03-07T04:04:09;14.73;;;7.55;;
75295;SDS011;64623;44.738;37.804;2024-03-07T04:05:12;12.57;;;7.63;;
75295;SDS011;64623;44.738;37.804;2024-03-07T04:06:15;15.02;;;6.80;;
75295;SDS011;64623;44.738;37.804;2024-03-07T04:07:18;11.88;;;6.95;;
75295;SDS011;64623;44.738;37.804;2024-03-07T04:08:22;11.55;;;6.93;;
75295;SDS011;64623;44.738;37.804;2024-03-07T04:09:25;16.10;;;7.63;;
75295;SDS011;64623;44.738;37.804;2024-03-07T04:10:29;12.45;;;7.00;;
75295;SDS011;64623;44.738;37.804;2024-03-07T04:11:32;10.80;;;6.75;;
75295;SDS011;64623;44.738;37.804;2024-03-07T04:12:35;11.55;;;7.28;;
75295;SDS011;64623;44.738;37.804;2024-03-07T04:13:44;10.38;;;7.30;;
75295;SDS011;64623;44.738;37.804;2024-03-07T04:14:48;9.70;;;6.68;;
75295;SDS011;64623;44.738;37.804;2024-03-07T04:15:51;12.38;;;6.78;;
75295;SDS011;64623;44.738;37.804;2024-03-07T04:16:54;9.05;;;6.28;;
75295;SDS011;64623;44.738;37.804;2024-03-07T04:17:59;11.50;;;6.18;;
75295;SDS011;64623;44.738;37.804;2024-03-07T04:19:02;13.63;;;6.80;;
75295;SDS011;64623;44.738;37.804;2024-03-07T04:20:06;11.40;;;6.28;;
75295;SDS011;64623;44.738;37.804;2024-03-07T04:21:09;10.55;;;6.82;;
75295;SDS011;64623;44.738;37.804;2024-03-07T04:22:12;10.05;;;6.75;;
75295;SDS011;64623;44.738;37.804;2024-03-07T04:23:15;10.45;;;5.80;;
75295;SDS011;64623;44.738;37.804;2024-03-07T04:24:18;12.45;;;6.55;;
75295;SDS011;64623;44.738;37.804;2024-03-07T04:25:21;10.43;;;6.28;;
75295;SDS011;64623;44.738;37.804;2024-03-07T04:26:24;8.55;;;5.82;;
75295;SDS011;64623;44.738;37.804;2024-03-07T04:27:28;12.02;;;6.47;;
75295;SDS011;64623;44.738;37.804;2024-03-07T04:28:31;11.45;;;6.53;;
75295;SDS011;64623;44.738;37.804;2024-03-07T04:29:34;12.90;;;7.43;;
75295;SDS011;64623;44.738;37.804;2024-03-07T04:30:37;11.05;;;6.47;;
75295;SDS011;64623;44.738;37.804;2024-03-07T04:31:40;10.85;;;6.63;;
75295;SDS011;64623;44.738;37.804;2024-03-07T04:32:43;9.63;;;5.75;;
75295;SDS011;64623;44.738;37.804;2024-03-07T04:33:46;10.95;;;7.18;;
75295;SDS011;64623;44.738;37.804;2024-03-07T04:34:49;11.88;;;6.93;;
75295;SDS011;64623;44.738;37.804;2024-03-07T04:35:52;15.52;;;8.05;;
75295;SDS011;64623;44.738;37.804;2024-03-07T04:36:55;12.57;;;7.47;;
75295;SDS011;64623;44.738;37.804;2024-03-07T04:39:12;12.40;;;6.35;;
75295;SDS011;64623;44.738;37.804;2024-03-07T04:40:27;10.57;;;6.00;;
75295;SDS011;64623;44.738;37.804;2024-03-07T04:41:30;11.13;;;6.38;;
75295;SDS011;64623;44.738;37.804;2024-03-07T04:42:33;16.23;;;8.57;;
75295;SDS011;64623;44.738;37.804;2024-03-07T04:43:36;16.13;;;7.78;;
75295;SDS011;64623;44.738;37.804;2024-03-07T04:44:39;9.23;;;6.90;;
75295;SDS011;64623;44.738;37.804;2024-03-07T04:45:42;11.20;;;6.65;;
75295;SDS011;64623;44.738;37.804;2024-03-07T04:46:45;13.77;;;8.02;;
75295;SDS011;64623;44.738;37.804;2024-03-07T04:47:48;13.60;;;8.15;;
75295;SDS011;64623;44.738;37.804;2024-03-07T04:48:52;14.45;;;7.30;;
75295;SDS011;64623;44.738;37.804;2024-03-07T04:49:55;11.65;;;7.53;;
75295;SDS011;64623;44.738;37.804;2024-03-07T04:50:58;14.50;;;6.50;;
75295;SDS011;64623;44.738;37.804;2024-03-07T04:52:01;11.20;;;6.88;;
75295;SDS011;64623;44.738;37.804;2024-03-07T04:53:05;11.30;;;7.30;;
75295;SDS011;64623;44.738;37.804;2024-03-07T04:54:08;12.70;;;8.00;;
75295;SDS011;64623;44.738;37.804;2024-03-07T04:55:11;11.52;;;7.70;;
75295;SDS011;64623;44.738;37.804;2024-03-07T04:56:15;10.50;;;7.50;;
75295;SDS011;64623;44.738;37.804;2024-03-07T04:57:18;12.35;;;6.45;;
75295;SDS011;64623;44.738;37.804;2024-03-07T04:58:21;13.10;;;7.40;;
75295;SDS011;64623;44.738;37.804;2024-03-07T04:59:24;14.13;;;6.30;;
75295;SDS011;64623;44.738;37.804;2024-03-07T05:00:27;9.85;;;6.22;;
75295;SDS011;64623;44.738;37.804;2024-03-07T05:01:31;11.38;;;6.47;;
75295;SDS011;64623;44.738;37.804;2024-03-07T05:02:34;11.75;;;6.68;;
75295;SDS011;64623;44.738;37.804;2024-03-07T05:03:37;10.93;;;6.47;;
75295;SDS011;64623;44.738;37.804;2024-03-07T05:04:40;11.48;;;7.00;;
75295;SDS011;64623;44.738;37.804;2024-03-07T05:05:43;11.45;;;6.68;;
75295;SDS011;64623;44.738;37.804;2024-03-07T05:06:46;10.63;;;6.25;;
75295;SDS011;64623;44.738;37.804;2024-03-07T05:07:51;12.15;;;6.32;;
75295;SDS011;64623;44.738;37.804;2024-03-07T05:08:54;11.75;;;6.30;;
75295;SDS011;64623;44.738;37.804;2024-03-07T05:09:57;10.77;;;6.93;;
75295;SDS011;64623;44.738;37.804;2024-03-07T05:11:00;11.70;;;6.40;;
75295;SDS011;64623;44.738;37.804;2024-03-07T05:12:03;9.45;;;6.03;;
75295;SDS011;64623;44.738;37.804;2024-03-07T05:13:06;17.02;;;7.78;;
75295;SDS011;64623;44.738;37.804;2024-03-07T05:14:09;10.40;;;7.10;;
75295;SDS011;64623;44.738;37.804;2024-03-07T05:15:13;12.20;;;7.70;;
75295;SDS011;64623;44.738;37.804;2024-03-07T05:16:16;13.05;;;7.88;;
75295;SDS011;64623;44.738;37.804;2024-03-07T05:17:20;15.70;;;8.30;;
75295;SDS011;64623;44.738;37.804;2024-03-07T05:18:24;15.73;;;8.00;;
75295;SDS011;64623;44.738;37.804;2024-03-07T05:19:27;14.13;;;7.55;;
75295;SDS011;64623;44.738;37.804;2024-03-07T05:20:30;10.60;;;6.95;;
75295;SDS011;64623;44.738;37.804;2024-03-07T05:21:33;10.75;;;7.30;;
75295;SDS011;64623;44.738;37.804;2024-03-07T05:22:40;10.45;;;7.05;;
75295;SDS011;64623;44.738;37.804;2024-03-07T05:23:46;11.00;;;7.13;;
75295;SDS011;64623;44.738;37.804;2024-03-07T05:24:52;12.75;;;7.05;;
75295;SDS011;64623;44.738;37.804;2024-03-07T05:25:56;12.13;;;7.13;;
75295;SDS011;64623;44.738;37.804;2024-03-07T05:26:59;10.82;;;7.28;;
75295;SDS011;64623;44.738;37.804;2024-03-07T05:28:02;12.82;;;7.63;;
75295;SDS011;64623;44.738;37.804;2024-03-07T05:29:07;11.00;;;7.10;;
75295;SDS011;64623;44.738;37.804;2024-03-07T05:30:11;11.38;;;7.13;;
75295;SDS011;64623;44.738;37.804;2024-03-07T05:31:15;11.35;;;7.07;;
75295;SDS011;64623;44.738;37.804;2024-03-07T05:33:27;10.20;;;5.90;;
75295;SDS011;64623;44.738;37.804;2024-03-07T05:34:30;8.43;;;5.53;;
75295;SDS011;64623;44.738;37.804;2024-03-07T05:35:35;11.82;;;7.38;;
75295;SDS011;64623;44.738;37.804;2024-03-07T05:36:39;10.32;;;6.75;;
75295;SDS011;64623;44.738;37.804;2024-03-07T05:37:49;13.02;;;6.82;;
75295;SDS011;64623;44.738;37.804;2024-03-07T05:38:53;10.68;;;6.93;;
75295;SDS011;64623;44.738;37.804;2024-03-07T05:39:56;13.48;;;6.63;;
75295;SDS011;64623;44.738;37.804;2024-03-07T05:40:59;9.45;;;5.38;;
75295;SDS011;64623;44.738;37.804;2024-03-07T05:42:03;15.35;;;7.20;;
75295;SDS011;64623;44.738;37.804;2024-03-07T05:43:06;11.80;;;6.43;;
75295;SDS011;64623;44.738;37.804;2024-03-07T05:44:09;9.75;;;6.15;;
75295;SDS011;64623;44.738;37.804;2024-03-07T05:45:12;8.48;;;5.82;;
75295;SDS011;64623;44.738;37.804;2024-03-07T05:46:17;12.70;;;6.40;;
75295;SDS011;64623;44.738;37.804;2024-03-07T05:47:20;9.95;;;6.05;;
75295;SDS011;64623;44.738;37.804;2024-03-07T05:48:24;9.98;;;5.55;;
75295;SDS011;64623;44.738;37.804;2024-03-07T05:49:27;10.63;;;5.85;;
75295;SDS011;64623;44.738;37.804;2024-03-07T05:50:30;12.00;;;6.22;;
75295;SDS011;64623;44.738;37.804;2024-03-07T05:51:33;9.82;;;6.10;;
75295;SDS011;64623;44.738;37.804;2024-03-07T05:52:36;10.80;;;5.85;;
75295;SDS011;64623;44.738;37.804;2024-03-07T05:53:39;11.68;;;6.35;;
75295;SDS011;64623;44.738;37.804;2024-03-07T05:54:43;9.60;;;5.55;;
75295;SDS011;64623;44.738;37.804;2024-03-07T05:55:46;9.40;;;5.88;;
75295;SDS011;64623;44.738;37.804;2024-03-07T05:56:52;10.13;;;6.50;;
75295;SDS011;64623;44.738;37.804;2024-03-07T05:57:55;12.38;;;7.30;;
75295;SDS011;64623;44.738;37.804;2024-03-07T05:58:58;12.77;;;6.32;;
75295;SDS011;64623;44.738;37.804;2024-03-07T06:00:01;10.80;;;6.38;;
75295;SDS011;64623;44.738;37.804;2024-03-07T06:01:13;13.93;;;6.13;;
75295;SDS011;64623;44.738;37.804;2024-03-07T06:02:16;11.55;;;6.55;;
75295;SDS011;64623;44.738;37.804;2024-03-07T06:03:19;11.90;;;6.05;;
75295;SDS011;64623;44.738;37.804;2024-03-07T06:04:22;10.88;;;6.07;;
75295;SDS011;64623;44.738;37.804;2024-03-07T06:05:25;12.77;;;6.65;;
75295;SDS011;64623;44.738;37.804;2024-03-07T06:06:29;11.60;;;6.35;;
75295;SDS011;64623;44.738;37.804;2024-03-07T06:07:34;8.40;;;6.25;;
75295;SDS011;64623;44.738;37.804;2024-03-07T06:08:38;11.60;;;6.88;;
75295;SDS011;64623;44.738;37.804;2024-03-07T06:09:45;11.70;;;6.05;;
75295;SDS011;64623;44.738;37.804;2024-03-07T06:10:50;10.48;;;6.47;;
75295;SDS011;64623;44.738;37.804;2024-03-07T06:11:53;8.63;;;6.38;;
75295;SDS011;64623;44.738;37.804;2024-03-07T06:12:56;10.82;;;6.60;;
75295;SDS011;64623;44.738;37.804;2024-03-07T06:14:02;11.95;;;6.40;;